sensor_id;sensor_type;location;lat;lon;timestamp;temperature;humidity
16503;DHT22;53067;48.114;11.694;2023-04-01T00:01:12;9.40;74.50
16503;DHT22;53067;48.114;11.694;2023-04-01T00:03:43;9.40;74.90
16503;DHT22;53067;48.114;11.694;2023-04-01T00:06:13;9.30;75.10
16503;DHT22;53067;48.114;11.694;2023-04-01T00:08:41;9.20;75.30
16503;DHT22;53067;48.114;11.694;2023-04-01T00:11:09;9.20;75.30
16503;DHT22;53067;48.114;11.694;2023-04-01T00:13:36;9.20;75.70
16503;DHT22;53067;48.114;11.694;2023-04-01T00:18:52;9.20;76.00
16503;DHT22;53067;48.114;11.694;2023-04-01T00:21:20;9.10;76.40
16503;DHT22;53067;48.114;11.694;2023-04-01T00:23:50;9.10;76.10
16503;DHT22;53067;48.114;11.694;2023-04-01T00:26:18;9.10;76.00
16503;DHT22;53067;48.114;11.694;2023-04-01T00:28:48;9.10;75.90
16503;DHT22;53067;48.114;11.694;2023-04-01T00:31:15;9.10;76.10
16503;DHT22;53067;48.114;11.694;2023-04-01T00:33:43;9.10;76.10
16503;DHT22;53067;48.114;11.694;2023-04-01T00:36:16;9.10;76.10
16503;DHT22;53067;48.114;11.694;2023-04-01T00:38:44;9.10;76.00
16503;DHT22;53067;48.114;11.694;2023-04-01T00:41:14;9.00;76.40
16503;DHT22;53067;48.114;11.694;2023-04-01T00:43:46;9.10;76.20
16503;DHT22;53067;48.114;11.694;2023-04-01T00:46:14;9.10;76.00
16503;DHT22;53067;48.114;11.694;2023-04-01T00:48:44;9.10;76.00
16503;DHT22;53067;48.114;11.694;2023-04-01T00:51:14;9.10;76.00
16503;DHT22;53067;48.114;11.694;2023-04-01T00:53:45;9.10;76.10
16503;DHT22;53067;48.114;11.694;2023-04-01T00:56:25;9.10;76.10
16503;DHT22;53067;48.114;11.694;2023-04-01T00:58:59;9.00;76.30
16503;DHT22;53067;48.114;11.694;2023-04-01T01:01:26;9.00;76.30
16503;DHT22;53067;48.114;11.694;2023-04-01T01:03:55;9.00;76.60
16503;DHT22;53067;48.114;11.694;2023-04-01T01:06:31;9.00;76.50
16503;DHT22;53067;48.114;11.694;2023-04-01T01:14:49;9.00;76.50
16503;DHT22;53067;48.114;11.694;2023-04-01T01:17:39;9.00;76.30
16503;DHT22;53067;48.114;11.694;2023-04-01T01:20:28;9.00;76.60
16503;DHT22;53067;48.114;11.694;2023-04-01T01:31:34;9.10;76.20
16503;DHT22;53067;48.114;11.694;2023-04-01T01:39:34;9.10;75.70
16503;DHT22;53067;48.114;11.694;2023-04-01T01:42:06;9.20;75.70
16503;DHT22;53067;48.114;11.694;2023-04-01T01:44:35;9.20;75.40
16503;DHT22;53067;48.114;11.694;2023-04-01T01:47:03;9.20;75.30
16503;DHT22;53067;48.114;11.694;2023-04-01T01:52:19;9.20;75.40
16503;DHT22;53067;48.114;11.694;2023-04-01T01:54:51;9.20;75.40
16503;DHT22;53067;48.114;11.694;2023-04-01T01:57:34;9.20;75.30
16503;DHT22;53067;48.114;11.694;2023-04-01T02:00:07;9.20;75.20
16503;DHT22;53067;48.114;11.694;2023-04-01T02:02:44;9.20;75.30
16503;DHT22;53067;48.114;11.694;2023-04-01T02:05:19;9.20;75.40
16503;DHT22;53067;48.114;11.694;2023-04-01T02:07:45;9.20;75.60
16503;DHT22;53067;48.114;11.694;2023-04-01T02:10:13;9.20;75.40
16503;DHT22;53067;48.114;11.694;2023-04-01T02:12:42;9.20;75.70
16503;DHT22;53067;48.114;11.694;2023-04-01T02:15:13;9.20;75.60
16503;DHT22;53067;48.114;11.694;2023-04-01T02:17:50;9.20;75.40
16503;DHT22;53067;48.114;11.694;2023-04-01T02:20:21;9.30;75.30
16503;DHT22;53067;48.114;11.694;2023-04-01T02:22:51;9.20;75.30
16503;DHT22;53067;48.114;11.694;2023-04-01T02:25:28;9.20;75.10
16503;DHT22;53067;48.114;11.694;2023-04-01T02:27:58;9.20;75.00
16503;DHT22;53067;48.114;11.694;2023-04-01T02:30:28;9.20;75.00
16503;DHT22;53067;48.114;11.694;2023-04-01T02:32:57;9.20;75.00
16503;DHT22;53067;48.114;11.694;2023-04-01T02:35:26;9.20;75.00
16503;DHT22;53067;48.114;11.694;2023-04-01T02:37:55;9.20;74.70
16503;DHT22;53067;48.114;11.694;2023-04-01T02:40:23;9.20;74.40
16503;DHT22;53067;48.114;11.694;2023-04-01T02:42:51;9.10;74.40
16503;DHT22;53067;48.114;11.694;2023-04-01T02:45:18;9.10;74.40
16503;DHT22;53067;48.114;11.694;2023-04-01T02:47:46;9.20;74.20
16503;DHT22;53067;48.114;11.694;2023-04-01T02:50:13;9.20;74.50
16503;DHT22;53067;48.114;11.694;2023-04-01T02:52:41;9.20;74.00
16503;DHT22;53067;48.114;11.694;2023-04-01T02:55:09;9.20;74.10
16503;DHT22;53067;48.114;11.694;2023-04-01T02:57:36;9.20;74.00
16503;DHT22;53067;48.114;11.694;2023-04-01T03:00:04;9.10;74.10
16503;DHT22;53067;48.114;11.694;2023-04-01T03:02:34;9.10;74.80
16503;DHT22;53067;48.114;11.694;2023-04-01T03:05:02;9.20;74.30
16503;DHT22;53067;48.114;11.694;2023-04-01T03:07:30;9.20;74.10
16503;DHT22;53067;48.114;11.694;2023-04-01T03:09:58;9.10;74.10
16503;DHT22;53067;48.114;11.694;2023-04-01T03:12:25;9.20;74.00
16503;DHT22;53067;48.114;11.694;2023-04-01T03:14:53;9.10;74.00
16503;DHT22;53067;48.114;11.694;2023-04-01T03:17:20;9.10;74.00
16503;DHT22;53067;48.114;11.694;2023-04-01T03:19:48;9.10;73.70
16503;DHT22;53067;48.114;11.694;2023-04-01T03:22:16;9.20;74.00
16503;DHT22;53067;48.114;11.694;2023-04-01T03:24:45;9.20;74.10
16503;DHT22;53067;48.114;11.694;2023-04-01T03:27:12;9.20;73.90
16503;DHT22;53067;48.114;11.694;2023-04-01T03:29:41;9.20;73.90
16503;DHT22;53067;48.114;11.694;2023-04-01T03:32:08;9.20;73.80
16503;DHT22;53067;48.114;11.694;2023-04-01T03:34:36;9.20;73.90
16503;DHT22;53067;48.114;11.694;2023-04-01T03:37:03;9.20;74.00
16503;DHT22;53067;48.114;11.694;2023-04-01T03:39:32;9.10;73.90
16503;DHT22;53067;48.114;11.694;2023-04-01T03:42:00;9.10;74.10
16503;DHT22;53067;48.114;11.694;2023-04-01T03:44:36;9.10;74.00
16503;DHT22;53067;48.114;11.694;2023-04-01T03:47:01;9.10;73.90
16503;DHT22;53067;48.114;11.694;2023-04-01T03:49:29;9.10;73.80
16503;DHT22;53067;48.114;11.694;2023-04-01T03:51:58;9.00;73.80
16503;DHT22;53067;48.114;11.694;2023-04-01T03:54:26;9.00;74.20
16503;DHT22;53067;48.114;11.694;2023-04-01T03:56:53;8.90;74.50
16503;DHT22;53067;48.114;11.694;2023-04-01T03:59:21;8.90;74.70
16503;DHT22;53067;48.114;11.694;2023-04-01T04:01:49;8.90;74.80
16503;DHT22;53067;48.114;11.694;2023-04-01T04:04:16;8.80;74.90
16503;DHT22;53067;48.114;11.694;2023-04-01T04:06:44;8.80;75.00
16503;DHT22;53067;48.114;11.694;2023-04-01T04:09:11;8.80;75.10
16503;DHT22;53067;48.114;11.694;2023-04-01T04:11:39;8.90;75.00
16503;DHT22;53067;48.114;11.694;2023-04-01T04:14:06;8.80;75.10
16503;DHT22;53067;48.114;11.694;2023-04-01T04:16:35;8.80;75.30
16503;DHT22;53067;48.114;11.694;2023-04-01T04:19:04;8.80;75.50
16503;DHT22;53067;48.114;11.694;2023-04-01T04:21:31;8.70;75.60
16503;DHT22;53067;48.114;11.694;2023-04-01T04:24:00;8.70;75.80
16503;DHT22;53067;48.114;11.694;2023-04-01T04:26:28;8.70;75.90
16503;DHT22;53067;48.114;11.694;2023-04-01T04:28:55;8.70;75.60
16503;DHT22;53067;48.114;11.694;2023-04-01T04:31:25;8.80;75.60
16503;DHT22;53067;48.114;11.694;2023-04-01T04:33:53;8.80;75.60
16503;DHT22;53067;48.114;11.694;2023-04-01T04:36:26;8.80;75.70
16503;DHT22;53067;48.114;11.694;2023-04-01T04:38:54;8.80;75.70
16503;DHT22;53067;48.114;11.694;2023-04-01T04:41:21;8.80;75.90
16503;DHT22;53067;48.114;11.694;2023-04-01T04:43:50;8.80;75.60
16503;DHT22;53067;48.114;11.694;2023-04-01T04:46:19;8.90;75.60
16503;DHT22;53067;48.114;11.694;2023-04-01T04:48:47;8.90;75.50
16503;DHT22;53067;48.114;11.694;2023-04-01T04:51:17;8.90;75.60
16503;DHT22;53067;48.114;11.694;2023-04-01T04:53:45;8.80;75.60
16503;DHT22;53067;48.114;11.694;2023-04-01T04:56:12;8.90;75.80
16503;DHT22;53067;48.114;11.694;2023-04-01T04:58:40;8.80;75.80
16503;DHT22;53067;48.114;11.694;2023-04-01T05:01:09;8.90;76.00
16503;DHT22;53067;48.114;11.694;2023-04-01T05:03:38;8.90;75.80
16503;DHT22;53067;48.114;11.694;2023-04-01T05:06:06;8.90;75.70
16503;DHT22;53067;48.114;11.694;2023-04-01T05:08:34;9.00;75.50
16503;DHT22;53067;48.114;11.694;2023-04-01T05:11:03;9.00;75.70
16503;DHT22;53067;48.114;11.694;2023-04-01T05:13:31;9.00;75.50
16503;DHT22;53067;48.114;11.694;2023-04-01T05:15:58;9.00;75.30
16503;DHT22;53067;48.114;11.694;2023-04-01T05:18:26;9.00;75.30
16503;DHT22;53067;48.114;11.694;2023-04-01T05:20:54;9.00;74.90
16503;DHT22;53067;48.114;11.694;2023-04-01T05:23:22;9.00;74.80
16503;DHT22;53067;48.114;11.694;2023-04-01T05:25:50;9.00;74.80
16503;DHT22;53067;48.114;11.694;2023-04-01T05:28:20;9.10;74.50
16503;DHT22;53067;48.114;11.694;2023-04-01T05:30:47;9.10;74.30
16503;DHT22;53067;48.114;11.694;2023-04-01T05:33:15;9.10;74.30
16503;DHT22;53067;48.114;11.694;2023-04-01T05:35:42;9.10;74.10
16503;DHT22;53067;48.114;11.694;2023-04-01T05:38:10;9.10;73.50
16503;DHT22;53067;48.114;11.694;2023-04-01T05:40:37;9.10;73.40
16503;DHT22;53067;48.114;11.694;2023-04-01T05:43:05;9.20;73.30
16503;DHT22;53067;48.114;11.694;2023-04-01T05:45:33;9.10;73.00
16503;DHT22;53067;48.114;11.694;2023-04-01T05:48:01;9.10;73.00
16503;DHT22;53067;48.114;11.694;2023-04-01T05:50:28;9.10;72.90
16503;DHT22;53067;48.114;11.694;2023-04-01T05:52:56;9.20;72.30
16503;DHT22;53067;48.114;11.694;2023-04-01T05:55:24;9.20;72.40
16503;DHT22;53067;48.114;11.694;2023-04-01T05:57:51;9.20;73.00
16503;DHT22;53067;48.114;11.694;2023-04-01T06:00:19;9.20;72.30
16503;DHT22;53067;48.114;11.694;2023-04-01T06:02:47;9.20;72.00
16503;DHT22;53067;48.114;11.694;2023-04-01T06:05:17;9.20;72.00
16503;DHT22;53067;48.114;11.694;2023-04-01T06:07:45;9.30;71.70
16503;DHT22;53067;48.114;11.694;2023-04-01T06:10:16;9.30;71.60
16503;DHT22;53067;48.114;11.694;2023-04-01T06:13:09;9.30;71.50
16503;DHT22;53067;48.114;11.694;2023-04-01T06:15:49;9.30;71.50
16503;DHT22;53067;48.114;11.694;2023-04-01T06:21:27;9.40;71.00
16503;DHT22;53067;48.114;11.694;2023-04-01T06:27:24;9.50;70.70
16503;DHT22;53067;48.114;11.694;2023-04-01T06:29:23;9.50;70.20
16503;DHT22;53067;48.114;11.694;2023-04-01T06:32:21;9.60;69.80
16503;DHT22;53067;48.114;11.694;2023-04-01T06:35:14;9.60;69.50
16503;DHT22;53067;48.114;11.694;2023-04-01T06:37:53;9.60;69.50
16503;DHT22;53067;48.114;11.694;2023-04-01T06:40:36;9.60;69.40
16503;DHT22;53067;48.114;11.694;2023-04-01T06:46:19;9.60;69.10
16503;DHT22;53067;48.114;11.694;2023-04-01T06:56:55;9.70;68.50
16503;DHT22;53067;48.114;11.694;2023-04-01T06:59:25;9.70;68.40
16503;DHT22;53067;48.114;11.694;2023-04-01T07:02:43;9.80;68.30
16503;DHT22;53067;48.114;11.694;2023-04-01T07:04:28;9.80;67.90
16503;DHT22;53067;48.114;11.694;2023-04-01T07:07:19;9.80;67.60
16503;DHT22;53067;48.114;11.694;2023-04-01T07:09:43;9.90;67.70
16503;DHT22;53067;48.114;11.694;2023-04-01T07:12:33;9.90;67.30
16503;DHT22;53067;48.114;11.694;2023-04-01T07:15:16;9.90;67.30
16503;DHT22;53067;48.114;11.694;2023-04-01T07:17:41;9.90;67.10
16503;DHT22;53067;48.114;11.694;2023-04-01T07:22:51;10.10;67.20
16503;DHT22;53067;48.114;11.694;2023-04-01T07:25:29;10.20;66.50
16503;DHT22;53067;48.114;11.694;2023-04-01T07:28:03;10.20;66.00
16503;DHT22;53067;48.114;11.694;2023-04-01T07:30:45;10.20;66.00
16503;DHT22;53067;48.114;11.694;2023-04-01T07:33:17;10.20;66.30
16503;DHT22;53067;48.114;11.694;2023-04-01T07:35:52;10.30;66.00
16503;DHT22;53067;48.114;11.694;2023-04-01T07:39:16;10.20;65.60
16503;DHT22;53067;48.114;11.694;2023-04-01T07:44:17;10.10;65.90
16503;DHT22;53067;48.114;11.694;2023-04-01T07:55:16;10.40;65.90
16503;DHT22;53067;48.114;11.694;2023-04-01T08:00:59;10.50;64.70
16503;DHT22;53067;48.114;11.694;2023-04-01T08:03:38;10.60;64.70
16503;DHT22;53067;48.114;11.694;2023-04-01T08:11:51;10.70;65.20
16503;DHT22;53067;48.114;11.694;2023-04-01T08:14:26;10.70;64.30
16503;DHT22;53067;48.114;11.694;2023-04-01T08:20:02;10.80;64.80
16503;DHT22;53067;48.114;11.694;2023-04-01T08:22:44;10.80;63.90
16503;DHT22;53067;48.114;11.694;2023-04-01T08:25:19;10.80;63.70
16503;DHT22;53067;48.114;11.694;2023-04-01T08:27:44;10.90;63.00
16503;DHT22;53067;48.114;11.694;2023-04-01T08:30:21;10.90;63.40
16503;DHT22;53067;48.114;11.694;2023-04-01T08:32:55;11.00;63.50
16503;DHT22;53067;48.114;11.694;2023-04-01T08:38:15;11.00;62.10
16503;DHT22;53067;48.114;11.694;2023-04-01T08:40:53;11.00;62.20
16503;DHT22;53067;48.114;11.694;2023-04-01T08:43:41;11.00;62.40
16503;DHT22;53067;48.114;11.694;2023-04-01T09:02:56;11.40;61.60
16503;DHT22;53067;48.114;11.694;2023-04-01T09:13:35;11.80;59.60
16503;DHT22;53067;48.114;11.694;2023-04-01T09:16:13;11.80;59.80
16503;DHT22;53067;48.114;11.694;2023-04-01T09:24:35;12.20;58.40
16503;DHT22;53067;48.114;11.694;2023-04-01T09:30:14;12.40;58.60
16503;DHT22;53067;48.114;11.694;2023-04-01T09:32:50;12.60;57.80
16503;DHT22;53067;48.114;11.694;2023-04-01T09:35:23;12.80;57.30
16503;DHT22;53067;48.114;11.694;2023-04-01T09:40:45;12.80;56.60
16503;DHT22;53067;48.114;11.694;2023-04-01T09:43:39;12.70;56.70
16503;DHT22;53067;48.114;11.694;2023-04-01T09:54:36;12.50;56.50
16503;DHT22;53067;48.114;11.694;2023-04-01T10:03:05;12.70;56.40
16503;DHT22;53067;48.114;11.694;2023-04-01T10:13:48;12.80;55.90
16503;DHT22;53067;48.114;11.694;2023-04-01T10:22:13;13.00;55.30
16503;DHT22;53067;48.114;11.694;2023-04-01T10:25:00;12.90;55.80
16503;DHT22;53067;48.114;11.694;2023-04-01T10:33:23;12.90;55.50
16503;DHT22;53067;48.114;11.694;2023-04-01T10:36:09;12.90;56.00
16503;DHT22;53067;48.114;11.694;2023-04-01T10:59:15;12.80;55.80
16503;DHT22;53067;48.114;11.694;2023-04-01T11:13:06;12.80;57.10
16503;DHT22;53067;48.114;11.694;2023-04-01T11:18:56;12.60;58.80
16503;DHT22;53067;48.114;11.694;2023-04-01T11:24:49;12.40;60.50
16503;DHT22;53067;48.114;11.694;2023-04-01T11:26:52;12.40;59.80
16503;DHT22;53067;48.114;11.694;2023-04-01T11:29:44;12.30;59.80
16503;DHT22;53067;48.114;11.694;2023-04-01T11:32:21;12.20;61.10
16503;DHT22;53067;48.114;11.694;2023-04-01T11:34:51;12.20;60.70
16503;DHT22;53067;48.114;11.694;2023-04-01T11:37:21;12.00;61.50
16503;DHT22;53067;48.114;11.694;2023-04-01T11:46:03;11.90;62.10
16503;DHT22;53067;48.114;11.694;2023-04-01T11:49:02;12.00;62.20
16503;DHT22;53067;48.114;11.694;2023-04-01T11:57:43;11.70;64.40
16503;DHT22;53067;48.114;11.694;2023-04-01T12:03:21;11.60;67.80
16503;DHT22;53067;48.114;11.694;2023-04-01T12:05:58;11.30;70.10
16503;DHT22;53067;48.114;11.694;2023-04-01T12:14:19;10.90;72.30
16503;DHT22;53067;48.114;11.694;2023-04-01T12:17:07;10.60;72.70
16503;DHT22;53067;48.114;11.694;2023-04-01T12:22:12;10.20;73.90
16503;DHT22;53067;48.114;11.694;2023-04-01T12:24:49;10.20;74.90
16503;DHT22;53067;48.114;11.694;2023-04-01T12:39:06;10.20;76.10
16503;DHT22;53067;48.114;11.694;2023-04-01T12:44:37;10.20;75.70
16503;DHT22;53067;48.114;11.694;2023-04-01T12:50:19;10.10;77.50
16503;DHT22;53067;48.114;11.694;2023-04-01T12:53:10;10.10;77.70
16503;DHT22;53067;48.114;11.694;2023-04-01T12:55:45;10.10;77.50
16503;DHT22;53067;48.114;11.694;2023-04-01T12:58:36;10.10;76.80
16503;DHT22;53067;48.114;11.694;2023-04-01T13:04:25;10.00;78.10
16503;DHT22;53067;48.114;11.694;2023-04-01T13:09:45;9.90;77.00
16503;DHT22;53067;48.114;11.694;2023-04-01T13:24:13;9.90;78.20
16503;DHT22;53067;48.114;11.694;2023-04-01T13:35:13;10.00;75.70
16503;DHT22;53067;48.114;11.694;2023-04-01T13:40:45;10.00;76.40
16503;DHT22;53067;48.114;11.694;2023-04-01T13:43:19;9.90;75.70
16503;DHT22;53067;48.114;11.694;2023-04-01T13:51:27;9.90;76.10
16503;DHT22;53067;48.114;11.694;2023-04-01T13:56:46;9.90;76.70
16503;DHT22;53067;48.114;11.694;2023-04-01T14:01:50;9.80;77.60
16503;DHT22;53067;48.114;11.694;2023-04-01T14:07:01;9.90;77.80
16503;DHT22;53067;48.114;11.694;2023-04-01T14:09:34;9.90;77.80
16503;DHT22;53067;48.114;11.694;2023-04-01T14:12:12;10.00;77.80
16503;DHT22;53067;48.114;11.694;2023-04-01T14:20:27;10.20;77.40
16503;DHT22;53067;48.114;11.694;2023-04-01T14:36:39;10.10;78.60
16503;DHT22;53067;48.114;11.694;2023-04-01T14:39:23;10.10;79.50
16503;DHT22;53067;48.114;11.694;2023-04-01T14:44:44;10.10;78.80
16503;DHT22;53067;48.114;11.694;2023-04-01T14:47:25;10.20;77.90
16503;DHT22;53067;48.114;11.694;2023-04-01T14:50:03;10.20;78.30
16503;DHT22;53067;48.114;11.694;2023-04-01T14:52:27;10.10;78.10
16503;DHT22;53067;48.114;11.694;2023-04-01T14:54:54;10.20;78.60
16503;DHT22;53067;48.114;11.694;2023-04-01T14:57:30;10.30;78.60
16503;DHT22;53067;48.114;11.694;2023-04-01T15:08:25;10.20;79.70
16503;DHT22;53067;48.114;11.694;2023-04-01T15:14:08;10.40;78.80
16503;DHT22;53067;48.114;11.694;2023-04-01T15:16:47;10.40;79.40
16503;DHT22;53067;48.114;11.694;2023-04-01T15:22:29;10.40;76.90
16503;DHT22;53067;48.114;11.694;2023-04-01T15:25:15;10.40;76.40
16503;DHT22;53067;48.114;11.694;2023-04-01T15:27:44;10.30;77.10
16503;DHT22;53067;48.114;11.694;2023-04-01T15:33:14;10.30;76.20
16503;DHT22;53067;48.114;11.694;2023-04-01T15:35:58;10.30;76.20
16503;DHT22;53067;48.114;11.694;2023-04-01T15:43:58;10.40;75.00
16503;DHT22;53067;48.114;11.694;2023-04-01T15:46:47;10.40;75.40
16503;DHT22;53067;48.114;11.694;2023-04-01T15:49:37;10.50;74.20
16503;DHT22;53067;48.114;11.694;2023-04-01T15:52:13;10.40;75.10
16503;DHT22;53067;48.114;11.694;2023-04-01T15:54:52;10.40;73.60
16503;DHT22;53067;48.114;11.694;2023-04-01T16:05:33;10.60;72.00
16503;DHT22;53067;48.114;11.694;2023-04-01T16:16:49;10.70;70.50
16503;DHT22;53067;48.114;11.694;2023-04-01T16:28:55;10.90;68.50
16503;DHT22;53067;48.114;11.694;2023-04-01T16:39:26;10.80;67.80
16503;DHT22;53067;48.114;11.694;2023-04-01T16:47:39;10.80;68.80
16503;DHT22;53067;48.114;11.694;2023-04-01T16:50:25;10.80;68.30
16503;DHT22;53067;48.114;11.694;2023-04-01T16:53:16;10.80;67.30
16503;DHT22;53067;48.114;11.694;2023-04-01T16:59:04;10.70;67.40
16503;DHT22;53067;48.114;11.694;2023-04-01T17:01:14;10.70;67.20
16503;DHT22;53067;48.114;11.694;2023-04-01T17:03:44;10.70;66.40
16503;DHT22;53067;48.114;11.694;2023-04-01T17:06:37;10.70;66.00
16503;DHT22;53067;48.114;11.694;2023-04-01T17:09:24;10.60;65.30
16503;DHT22;53067;48.114;11.694;2023-04-01T17:12:09;10.60;65.00
16503;DHT22;53067;48.114;11.694;2023-04-01T17:22:49;10.50;66.20
16503;DHT22;53067;48.114;11.694;2023-04-01T17:25:47;10.50;66.80
16503;DHT22;53067;48.114;11.694;2023-04-01T17:28:40;10.50;66.20
16503;DHT22;53067;48.114;11.694;2023-04-01T17:36:56;10.40;67.10
16503;DHT22;53067;48.114;11.694;2023-04-01T17:39:32;10.40;66.50
16503;DHT22;53067;48.114;11.694;2023-04-01T17:42:09;10.50;66.20
16503;DHT22;53067;48.114;11.694;2023-04-01T17:47:41;10.50;66.30
16503;DHT22;53067;48.114;11.694;2023-04-01T17:50:20;10.50;66.10
16503;DHT22;53067;48.114;11.694;2023-04-01T17:53:19;10.50;66.00
16503;DHT22;53067;48.114;11.694;2023-04-01T17:55:52;10.50;65.60
16503;DHT22;53067;48.114;11.694;2023-04-01T17:58:29;10.50;66.20
16503;DHT22;53067;48.114;11.694;2023-04-01T18:04:06;10.50;66.20
16503;DHT22;53067;48.114;11.694;2023-04-01T18:06:56;10.50;65.90
16503;DHT22;53067;48.114;11.694;2023-04-01T18:18:25;10.40;66.00
16503;DHT22;53067;48.114;11.694;2023-04-01T18:20:36;10.50;66.00
16503;DHT22;53067;48.114;11.694;2023-04-01T18:23:12;10.50;66.30
16503;DHT22;53067;48.114;11.694;2023-04-01T18:25:35;10.50;67.20
16503;DHT22;53067;48.114;11.694;2023-04-01T18:28:31;10.50;66.60
16503;DHT22;53067;48.114;11.694;2023-04-01T18:45:28;10.20;70.30
16503;DHT22;53067;48.114;11.694;2023-04-01T18:48:04;10.10;71.00
16503;DHT22;53067;48.114;11.694;2023-04-01T18:50:38;10.00;71.10
16503;DHT22;53067;48.114;11.694;2023-04-01T18:56:04;9.90;71.90
16503;DHT22;53067;48.114;11.694;2023-04-01T19:01:10;9.90;72.90
16503;DHT22;53067;48.114;11.694;2023-04-01T19:03:54;9.90;73.00
16503;DHT22;53067;48.114;11.694;2023-04-01T19:06:30;9.90;73.20
16503;DHT22;53067;48.114;11.694;2023-04-01T19:14:55;9.90;73.70
16503;DHT22;53067;48.114;11.694;2023-04-01T19:17:29;9.90;73.60
16503;DHT22;53067;48.114;11.694;2023-04-01T19:20:32;9.90;74.60
16503;DHT22;53067;48.114;11.694;2023-04-01T19:26:10;10.00;73.80
16503;DHT22;53067;48.114;11.694;2023-04-01T19:37:32;10.00;73.50
16503;DHT22;53067;48.114;11.694;2023-04-01T19:40:14;10.00;73.60
16503;DHT22;53067;48.114;11.694;2023-04-01T19:48:24;10.00;73.10
16503;DHT22;53067;48.114;11.694;2023-04-01T19:53:38;10.10;73.10
16503;DHT22;53067;48.114;11.694;2023-04-01T20:01:59;10.10;72.30
16503;DHT22;53067;48.114;11.694;2023-04-01T20:04:35;10.00;72.20
16503;DHT22;53067;48.114;11.694;2023-04-01T20:07:27;9.90;72.40
16503;DHT22;53067;48.114;11.694;2023-04-01T20:15:47;9.90;72.60
16503;DHT22;53067;48.114;11.694;2023-04-01T20:18:25;9.80;72.80
16503;DHT22;53067;48.114;11.694;2023-04-01T20:24:01;9.70;72.80
16503;DHT22;53067;48.114;11.694;2023-04-01T20:26:51;9.70;72.90
16503;DHT22;53067;48.114;11.694;2023-04-01T20:32:11;9.70;73.00
16503;DHT22;53067;48.114;11.694;2023-04-01T20:34:50;9.70;73.00
16503;DHT22;53067;48.114;11.694;2023-04-01T20:37:42;9.70;73.00
16503;DHT22;53067;48.114;11.694;2023-04-01T20:45:49;9.60;73.20
16503;DHT22;53067;48.114;11.694;2023-04-01T20:51:13;9.70;73.00
16503;DHT22;53067;48.114;11.694;2023-04-01T20:53:59;9.70;73.30
16503;DHT22;53067;48.114;11.694;2023-04-01T20:59:36;9.60;73.10
16503;DHT22;53067;48.114;11.694;2023-04-01T21:02:29;9.60;73.20
16503;DHT22;53067;48.114;11.694;2023-04-01T21:05:34;9.50;73.20
16503;DHT22;53067;48.114;11.694;2023-04-01T21:08:22;9.60;73.50
16503;DHT22;53067;48.114;11.694;2023-04-01T21:13:55;9.50;73.60
16503;DHT22;53067;48.114;11.694;2023-04-01T21:16:33;9.50;73.60
16503;DHT22;53067;48.114;11.694;2023-04-01T21:21:46;9.50;73.60
16503;DHT22;53067;48.114;11.694;2023-04-01T21:24:29;9.60;72.90
16503;DHT22;53067;48.114;11.694;2023-04-01T21:27:57;9.60;73.40
16503;DHT22;53067;48.114;11.694;2023-04-01T21:29:57;9.60;73.20
16503;DHT22;53067;48.114;11.694;2023-04-01T21:32:38;9.60;73.10
16503;DHT22;53067;48.114;11.694;2023-04-01T21:41:16;9.60;73.60
16503;DHT22;53067;48.114;11.694;2023-04-01T21:49:09;9.70;72.60
16503;DHT22;53067;48.114;11.694;2023-04-01T22:05:28;9.60;72.80
16503;DHT22;53067;48.114;11.694;2023-04-01T22:08:25;9.60;72.70
16503;DHT22;53067;48.114;11.694;2023-04-01T22:11:10;9.60;73.00
16503;DHT22;53067;48.114;11.694;2023-04-01T22:13:39;9.60;72.80
16503;DHT22;53067;48.114;11.694;2023-04-01T22:21:46;9.60;72.60
16503;DHT22;53067;48.114;11.694;2023-04-01T22:24:18;9.70;72.80
16503;DHT22;53067;48.114;11.694;2023-04-01T22:27:00;9.70;72.30
16503;DHT22;53067;48.114;11.694;2023-04-01T22:32:23;9.70;72.80
16503;DHT22;53067;48.114;11.694;2023-04-01T22:43:37;9.60;72.50
16503;DHT22;53067;48.114;11.694;2023-04-01T22:46:30;9.60;72.80
16503;DHT22;53067;48.114;11.694;2023-04-01T22:48:59;9.60;72.60
16503;DHT22;53067;48.114;11.694;2023-04-01T22:54:31;9.60;72.50
16503;DHT22;53067;48.114;11.694;2023-04-01T22:57:28;9.60;72.60
16503;DHT22;53067;48.114;11.694;2023-04-01T23:00:00;9.60;72.40
16503;DHT22;53067;48.114;11.694;2023-04-01T23:02:27;9.60;72.20
16503;DHT22;53067;48.114;11.694;2023-04-01T23:04:58;9.70;72.30
16503;DHT22;53067;48.114;11.694;2023-04-01T23:10:25;9.70;71.90
16503;DHT22;53067;48.114;11.694;2023-04-01T23:12:56;9.70;71.70
16503;DHT22;53067;48.114;11.694;2023-04-01T23:15:24;9.70;71.90
16503;DHT22;53067;48.114;11.694;2023-04-01T23:28:56;9.70;72.10
16503;DHT22;53067;48.114;11.694;2023-04-01T23:31:37;9.70;71.90
16503;DHT22;53067;48.114;11.694;2023-04-01T23:36:46;9.70;71.90
16503;DHT22;53067;48.114;11.694;2023-04-01T23:39:40;9.70;72.20
16503;DHT22;53067;48.114;11.694;2023-04-01T23:44:49;9.70;72.20
16503;DHT22;53067;48.114;11.694;2023-04-01T23:47:20;9.60;72.30
16503;DHT22;53067;48.114;11.694;2023-04-01T23:52:36;9.60;72.50
16503;DHT22;53067;48.114;11.694;2023-04-01T23:57:40;9.60;72.30
